Les articles d'ExpertMaritime.pro


Votre expert maritime indépendant Xavier Braive est disponible sur la zone de Saujon - Port de Ribérou - 17600

(Charente-Maritime - Poitou-Charentes)


Voir plan
Situation :

Le port de Ribérou est un port de pêche et de plaisance situé au fond de l'estuaire de la Seudre, à Saujon. C'est l'un des deux ports de la ville avec celui du Breuil, un peu en aval.

Actif dès le XIe siècle, il prend son aspect actuel à partir de 1842, sous l'impulsion du ministre des travaux publics de l'époque, Jules Dufaure, " enfant du pays", qui tente ainsi de relancer le commerce maritime et les activités halieutiques, alors en déclin.
Idéalement situé, en marge du centre-ville, de la base de loisirs de La Lande et des espaces préservés des marais de la Seudre (chemins de halage transformés en sentiers de promenade), il est devenu un des hauts lieux du tourisme saujonnais, où sont notamment organisés des soirées thématiques et le feu d'artifice du 14 juillet.

En 2011, le port de Ribérou a été l'objet d'un important programme de rénovation urbaine conduit par l'architecte-urbaniste Sophie Blanchet, complétant des efforts déjà mis en œuvre en centre-ville.
Une partie du site est reconvertie en esplanade piétonne, dotée d'un mobilier urbain contemporain : il se veut une sorte de "trait d'union" entre la base de loisirs de La Lande (piscine, tennis, boulodrome, stade, terrain de basket...), les sentiers de promenade et de découverte des marais de la Seudre, qui débutent au port, et le centre-ville.
L'inauguration du nouveau port a lieu le 18 août 2012, en présence du maire, Pascal Ferchaud, et d'une foule nombreuse venue profiter des animations : concerts, jeux nautiques, joutes, etc.

Aujourd'hui, le port de Ribérou est un petit port de pêche et de plaisance. C'est également une base de départ pour certains sports nautiques (canoë-kayak). Sa longueur est d'environ 250 mètres pour 40 mètres.
Depuis Ribérou, il est possible d'atteindre successivement les ports du Breuil (Saujon), de L'Éguille, de Mornac, de Chaillevette, de Chatressac (Chaillevette), des Grandes Roches et d'Orivol (Étaules), de La Grève à Duret et de Coux (Arvert), de La Grève (La Tremblade) et de La Cayenne (Marennes).


En 2011, la municipalité entame un programme de rénovation du site portuaire, confié à l'architecte-urbaniste Sophie Blanchet. Il consiste en une transformation des anciens parkings en esplanade piétonne, véritable espace de rencontre doté d'un mobilier urbain moderne et à terme, d'espaces verts. Depuis les quais, bordés d'immeubles bourgeois, de petites rues pittoresques et fleuries de roses trémières permettent de sillonner le quartier et de rejoindre le centre-ville.

Le pont à écluse de Ribérou, dit « pont des eaux contraires », a été rénové en 2010. Il marque la séparation entre les eaux de l'estuaire (côté port : eaux saumâtres) et les eaux du fleuve (côté bassin de retenue : eaux douces).



Adresse :

Mairie
1, place Denfert Rochereau
17600 SAUJON

Tél/Fax : 05 46 02 80 07 / 05 46 02 91 92

E-mail : contact@mairie-saujon.fr
Météo locale sur la zone Port de Ribérou
Heure (UTC) Dir.Vent Vit.Vent (nds) Force (Bft) T°min T°max P (mb) Hum.Rel.
21/11/2018 - 06:00:00 au 21/11/2018 - 09:00:00 110° (ESE) 9 3 1°C 5°C 1023 100 %
21/11/2018 - 09:00:00 au 21/11/2018 - 12:00:00 092° (E) 10 3 5°C 7°C 1023 100 %
21/11/2018 - 12:00:00 au 21/11/2018 - 15:00:00 094° (E) 13 4 7°C 8°C 1023 95 %
21/11/2018 - 15:00:00 au 21/11/2018 - 18:00:00 107° (ESE) 12 4 7°C 8°C 1024 99 %
21/11/2018 - 18:00:00 au 21/11/2018 - 21:00:00 129° (SE) 11 4 9°C 9°C 1024 100 %
21/11/2018 - 21:00:00 au 22/11/2018 - 00:00:00 158° (SSE) 14 4 10°C 10°C 1024 99 %
22/11/2018 - 00:00:00 au 22/11/2018 - 03:00:00 163° (SSE) 14 4 10°C 10°C 1024 97 %
22/11/2018 - 03:00:00 au 22/11/2018 - 06:00:00 163° (SSE) 14 4 10°C 10°C 1024 98 %
22/11/2018 - 06:00:00 au 22/11/2018 - 09:00:00 173° (S) 15 4 11°C 11°C 1025 93 %
22/11/2018 - 09:00:00 au 22/11/2018 - 12:00:00 178° (S) 14 4 14°C 14°C 1025 79 %
22/11/2018 - 12:00:00 au 22/11/2018 - 15:00:00 193° (SSW) 14 4 14°C 14°C 1025 77 %
22/11/2018 - 15:00:00 au 22/11/2018 - 18:00:00 173° (S) 11 4 13°C 13°C 1025 84 %
22/11/2018 - 18:00:00 au 22/11/2018 - 21:00:00 147° (SSE) 14 4 12°C 12°C 1025 93 %
22/11/2018 - 21:00:00 au 23/11/2018 - 00:00:00 156° (SSE) 15 4 12°C 12°C 1025 91 %
23/11/2018 - 00:00:00 au 23/11/2018 - 03:00:00 150° (SSE) 15 4 11°C 11°C 1024 95 %
23/11/2018 - 03:00:00 au 23/11/2018 - 06:00:00 151° (SSE) 15 4 11°C 11°C 1023 100 %
23/11/2018 - 06:00:00 au 23/11/2018 - 09:00:00 167° (SSE) 14 4 11°C 11°C 1023 99 %
23/11/2018 - 09:00:00 au 23/11/2018 - 12:00:00 182° (S) 14 4 11°C 11°C 1023 100 %
23/11/2018 - 12:00:00 au 23/11/2018 - 15:00:00 254° (WSW) 16 4 13°C 13°C 1023 90 %
23/11/2018 - 15:00:00 au 23/11/2018 - 18:00:00 223° (SW) 13 4 12°C 12°C 1024 92 %
23/11/2018 - 18:00:00 au 23/11/2018 - 21:00:00 220° (SW) 12 4 12°C 12°C 1025 95 %
23/11/2018 - 21:00:00 au 24/11/2018 - 00:00:00 202° (SSW) 15 4 12°C 12°C 1024 93 %
24/11/2018 - 00:00:00 au 24/11/2018 - 03:00:00 224° (SW) 16 4 13°C 13°C 1024 91 %
24/11/2018 - 03:00:00 au 24/11/2018 - 06:00:00 208° (SSW) 12 4 12°C 12°C 1024 93 %
24/11/2018 - 06:00:00 au 24/11/2018 - 09:00:00 178° (S) 13 4 12°C 12°C 1024 92 %
24/11/2018 - 09:00:00 au 24/11/2018 - 12:00:00 194° (SSW) 16 4 14°C 14°C 1023 86 %
24/11/2018 - 12:00:00 au 24/11/2018 - 15:00:00 188° (S) 15 4 14°C 14°C 1021 82 %
24/11/2018 - 15:00:00 au 24/11/2018 - 18:00:00 177° (S) 15 4 13°C 13°C 1021 81 %
24/11/2018 - 18:00:00 au 24/11/2018 - 21:00:00 169° (S) 18 5 13°C 13°C 1019 83 %
24/11/2018 - 21:00:00 au 25/11/2018 - 00:00:00 170° (S) 20 5 12°C 12°C 1017 86 %
25/11/2018 - 00:00:00 au 25/11/2018 - 03:00:00 165° (SSE) 24 6 11°C 11°C 1013 100 %
25/11/2018 - 03:00:00 au 25/11/2018 - 06:00:00 171° (S) 26 6 12°C 12°C 1009 98 %
25/11/2018 - 06:00:00 au 25/11/2018 - 09:00:00 274° (W) 38 8 11°C 11°C 1011 100 %
25/11/2018 - 09:00:00 au 25/11/2018 - 12:00:00 267° (W) 30 7 11°C 11°C 1014 100 %
25/11/2018 - 12:00:00 au 25/11/2018 - 15:00:00 287° (WNW) 25 6 11°C 11°C 1017 100 %
25/11/2018 - 15:00:00 au 25/11/2018 - 18:00:00 293° (WNW) 23 6 12°C 12°C 1019 95 %
25/11/2018 - 18:00:00 au 25/11/2018 - 21:00:00 291° (WNW) 21 5 12°C 12°C 1021 94 %
25/11/2018 - 21:00:00 au 26/11/2018 - 00:00:00 291° (WNW) 19 5 12°C 12°C 1022 93 %
26/11/2018 - 00:00:00 au 26/11/2018 - 03:00:00 283° (WNW) 15 4 12°C 12°C 1022 93 %
26/11/2018 - 03:00:00 au 26/11/2018 - 06:00:00 265° (W) 8 3 12°C 12°C 1021 94 %
openweathermap
Ces informations sont partiellement extraites de Wikipedia, et des sites pertinents pour cette zone. Compilation d'informations de Xavier Braive.
Xavier Braive, Expert Maritime Plaisance se déplace sur Port de Ribérou, Saujon, 17600, Charente-Maritime

Welcome to Cross-Channel yachtmen !

we can deliver survey reports in english, in case of dammage or prior to buy / sell a boat in France (pre-purchase survey), and more specifically on the Normandy and Atlantic coasts.

Zone Méditerrannée

En partenariat avec le cabinet d'expertise IEM, nous proposons une couverture de la Côte d'Azur.
N'hésitez pas à contacter IEM en cliquant sur www.expert-maritime-cote-dazur.com

Uw onafhankelijk jachtexpert

verkrijkbaar op de Normandie kust, bij aankoop of reparatie van jachten (metaal, polyester of composiet). Rapporten in Nederlands

BRAIVE, Xavier
Xavier Braive
Expert Maritime
Nouvelle Aquitaine
France
06 71 50 20 17